Fork, Maryland
Current Conditions -  °F | °C
As of 5:55 PM on Tuesday 27 Jan 2015 (Local Time) from KMTN Reporting Station
Few Clouds Few Clouds  
Wind Chill: -5°   Ceiling: Unl
Heat Index:   Visibility: 10mi
Dew Point: -6°   Wind: 20mph
Humidity: 60%   Direction: 270°W
Pressure: 29.84"   Gusts: NA
Location:  39.47°N, 76.44°W
Report Text: KMTN 272255Z 27017KT 10SM FEW200 01/M06 A2984
Loading
Personal Weather Stations






























Interactive Weather Map New forecast layout! Learn more

10-Day Weather Forecast

Advertisements
Track Severe Weather on mobile